sensor_id;sensor_type;location;lat;lon;timestamp;P1;durP1;ratioP1;P2;durP2;ratioP2
56637;SDS011;42507;51.982;20.140;2022-08-23T00:01:16;10.28;;;6.85;;
56637;SDS011;42507;51.982;20.140;2022-08-23T00:03:47;8.18;;;6.33;;
56637;SDS011;42507;51.982;20.140;2022-08-23T00:06:14;12.20;;;7.50;;
56637;SDS011;42507;51.982;20.140;2022-08-23T00:08:41;8.85;;;6.33;;
56637;SDS011;42507;51.982;20.140;2022-08-23T00:14:12;9.20;;;6.67;;
56637;SDS011;42507;51.982;20.140;2022-08-23T00:16:42;9.10;;;6.28;;
56637;SDS011;42507;51.982;20.140;2022-08-23T00:19:11;9.30;;;6.08;;
56637;SDS011;42507;51.982;20.140;2022-08-23T00:21:40;9.78;;;6.37;;
56637;SDS011;42507;51.982;20.140;2022-08-23T00:24:07;9.53;;;6.35;;
56637;SDS011;42507;51.982;20.140;2022-08-23T00:29:29;9.43;;;7.25;;
56637;SDS011;42507;51.982;20.140;2022-08-23T00:31:58;17.15;;;8.00;;
56637;SDS011;42507;51.982;20.140;2022-08-23T00:34:25;8.58;;;6.87;;
56637;SDS011;42507;51.982;20.140;2022-08-23T00:36:51;12.90;;;7.40;;
56637;SDS011;42507;51.982;20.140;2022-08-23T00:39:17;11.08;;;7.35;;
56637;SDS011;42507;51.982;20.140;2022-08-23T00:41:44;9.28;;;6.50;;
56637;SDS011;42507;51.982;20.140;2022-08-23T00:44:14;8.85;;;6.70;;
56637;SDS011;42507;51.982;20.140;2022-08-23T00:47:07;12.88;;;8.00;;
56637;SDS011;42507;51.982;20.140;2022-08-23T00:49:56;11.73;;;7.67;;
56637;SDS011;42507;51.982;20.140;2022-08-23T00:52:56;7.08;;;6.22;;
56637;SDS011;42507;51.982;20.140;2022-08-23T00:55:43;11.05;;;8.43;;
56637;SDS011;42507;51.982;20.140;2022-08-23T00:58:13;15.38;;;9.75;;
56637;SDS011;42507;51.982;20.140;2022-08-23T01:00:43;11.50;;;8.08;;
56637;SDS011;42507;51.982;20.140;2022-08-23T01:03:10;9.98;;;7.90;;
56637;SDS011;42507;51.982;20.140;2022-08-23T01:05:44;10.50;;;7.55;;
56637;SDS011;42507;51.982;20.140;2022-08-23T01:08:20;9.83;;;7.03;;
56637;SDS011;42507;51.982;20.140;2022-08-23T01:10:53;11.65;;;7.53;;
56637;SDS011;42507;51.982;20.140;2022-08-23T01:13:32;12.43;;;6.95;;
56637;SDS011;42507;51.982;20.140;2022-08-23T01:16:04;11.65;;;6.83;;
56637;SDS011;42507;51.982;20.140;2022-08-23T01:18:33;13.83;;;7.83;;
56637;SDS011;42507;51.982;20.140;2022-08-23T01:21:10;10.58;;;7.65;;
56637;SDS011;42507;51.982;20.140;2022-08-23T01:26:23;12.33;;;8.38;;
56637;SDS011;42507;51.982;20.140;2022-08-23T01:28:51;11.48;;;8.20;;
56637;SDS011;42507;51.982;20.140;2022-08-23T01:31:19;20.77;;;9.65;;
56637;SDS011;42507;51.982;20.140;2022-08-23T01:33:49;14.43;;;9.50;;
56637;SDS011;42507;51.982;20.140;2022-08-23T01:36:25;12.25;;;8.78;;
56637;SDS011;42507;51.982;20.140;2022-08-23T01:38:52;17.87;;;10.08;;
56637;SDS011;42507;51.982;20.140;2022-08-23T01:41:18;15.80;;;10.40;;
56637;SDS011;42507;51.982;20.140;2022-08-23T01:43:45;13.62;;;9.68;;
56637;SDS011;42507;51.982;20.140;2022-08-23T01:46:15;16.30;;;10.03;;
56637;SDS011;42507;51.982;20.140;2022-08-23T01:48:45;18.32;;;11.15;;
56637;SDS011;42507;51.982;20.140;2022-08-23T01:51:15;17.10;;;11.50;;
56637;SDS011;42507;51.982;20.140;2022-08-23T01:53:44;15.35;;;11.20;;
56637;SDS011;42507;51.982;20.140;2022-08-23T01:56:13;17.45;;;11.68;;
56637;SDS011;42507;51.982;20.140;2022-08-23T01:58:39;17.92;;;11.53;;
56637;SDS011;42507;51.982;20.140;2022-08-23T02:01:07;16.27;;;9.93;;
56637;SDS011;42507;51.982;20.140;2022-08-23T02:03:34;15.20;;;10.20;;
56637;SDS011;42507;51.982;20.140;2022-08-23T02:06:03;17.85;;;10.30;;
56637;SDS011;42507;51.982;20.140;2022-08-23T02:08:30;17.92;;;11.75;;
56637;SDS011;42507;51.982;20.140;2022-08-23T02:11:17;12.82;;;10.25;;
56637;SDS011;42507;51.982;20.140;2022-08-23T02:13:47;14.25;;;10.90;;
56637;SDS011;42507;51.982;20.140;2022-08-23T02:16:26;22.42;;;11.35;;
56637;SDS011;42507;51.982;20.140;2022-08-23T02:18:55;20.25;;;10.75;;
56637;SDS011;42507;51.982;20.140;2022-08-23T02:21:22;19.27;;;12.45;;
56637;SDS011;42507;51.982;20.140;2022-08-23T02:23:49;19.70;;;12.55;;
56637;SDS011;42507;51.982;20.140;2022-08-23T02:26:17;20.05;;;13.65;;
56637;SDS011;42507;51.982;20.140;2022-08-23T02:28:44;19.10;;;12.47;;
56637;SDS011;42507;51.982;20.140;2022-08-23T02:31:11;20.40;;;12.70;;
56637;SDS011;42507;51.982;20.140;2022-08-23T02:33:38;18.90;;;13.08;;
56637;SDS011;42507;51.982;20.140;2022-08-23T02:36:04;20.95;;;12.45;;
56637;SDS011;42507;51.982;20.140;2022-08-23T02:38:31;17.23;;;11.88;;
56637;SDS011;42507;51.982;20.140;2022-08-23T02:40:57;19.57;;;12.25;;
56637;SDS011;42507;51.982;20.140;2022-08-23T02:43:24;16.25;;;10.40;;
56637;SDS011;42507;51.982;20.140;2022-08-23T02:45:50;18.23;;;12.25;;
56637;SDS011;42507;51.982;20.140;2022-08-23T02:48:16;17.50;;;11.40;;
56637;SDS011;42507;51.982;20.140;2022-08-23T02:50:44;12.40;;;8.85;;
56637;SDS011;42507;51.982;20.140;2022-08-23T02:53:11;18.52;;;10.90;;
56637;SDS011;42507;51.982;20.140;2022-08-23T02:55:37;17.10;;;11.15;;
56637;SDS011;42507;51.982;20.140;2022-08-23T02:58:03;16.77;;;11.30;;
56637;SDS011;42507;51.982;20.140;2022-08-23T03:00:30;21.65;;;11.65;;
56637;SDS011;42507;51.982;20.140;2022-08-23T03:02:56;18.75;;;10.93;;
56637;SDS011;42507;51.982;20.140;2022-08-23T03:05:23;19.07;;;11.88;;
56637;SDS011;42507;51.982;20.140;2022-08-23T03:07:49;17.07;;;10.98;;
56637;SDS011;42507;51.982;20.140;2022-08-23T03:10:16;17.07;;;12.47;;
56637;SDS011;42507;51.982;20.140;2022-08-23T03:12:44;18.30;;;12.10;;
56637;SDS011;42507;51.982;20.140;2022-08-23T03:15:10;20.32;;;12.23;;
56637;SDS011;42507;51.982;20.140;2022-08-23T03:17:36;18.70;;;11.60;;
56637;SDS011;42507;51.982;20.140;2022-08-23T03:20:04;15.45;;;11.12;;
56637;SDS011;42507;51.982;20.140;2022-08-23T03:22:32;16.35;;;11.73;;
56637;SDS011;42507;51.982;20.140;2022-08-23T03:24:58;19.35;;;12.07;;
56637;SDS011;42507;51.982;20.140;2022-08-23T03:27:26;16.12;;;10.88;;
56637;SDS011;42507;51.982;20.140;2022-08-23T03:29:53;13.75;;;10.68;;
56637;SDS011;42507;51.982;20.140;2022-08-23T03:32:19;20.50;;;12.35;;
56637;SDS011;42507;51.982;20.140;2022-08-23T03:34:45;13.88;;;10.43;;
56637;SDS011;42507;51.982;20.140;2022-08-23T03:37:11;20.95;;;11.00;;
56637;SDS011;42507;51.982;20.140;2022-08-23T03:39:38;12.73;;;9.85;;
56637;SDS011;42507;51.982;20.140;2022-08-23T03:42:04;12.10;;;9.58;;
56637;SDS011;42507;51.982;20.140;2022-08-23T03:44:32;12.82;;;10.30;;
56637;SDS011;42507;51.982;20.140;2022-08-23T03:46:58;15.65;;;10.65;;
56637;SDS011;42507;51.982;20.140;2022-08-23T03:49:25;17.62;;;11.03;;
56637;SDS011;42507;51.982;20.140;2022-08-23T03:51:53;21.52;;;11.80;;
56637;SDS011;42507;51.982;20.140;2022-08-23T03:54:19;17.85;;;12.05;;
56637;SDS011;42507;51.982;20.140;2022-08-23T03:56:52;16.25;;;11.35;;
56637;SDS011;42507;51.982;20.140;2022-08-23T03:59:31;18.45;;;11.55;;
56637;SDS011;42507;51.982;20.140;2022-08-23T04:01:59;17.25;;;12.60;;
56637;SDS011;42507;51.982;20.140;2022-08-23T04:04:26;19.57;;;11.97;;
56637;SDS011;42507;51.982;20.140;2022-08-23T04:07:11;19.65;;;12.78;;
56637;SDS011;42507;51.982;20.140;2022-08-23T04:09:37;15.55;;;11.80;;
56637;SDS011;42507;51.982;20.140;2022-08-23T04:12:04;22.60;;;13.00;;
56637;SDS011;42507;51.982;20.140;2022-08-23T04:14:30;18.80;;;13.13;;
56637;SDS011;42507;51.982;20.140;2022-08-23T04:16:57;23.83;;;13.00;;
56637;SDS011;42507;51.982;20.140;2022-08-23T04:19:23;14.98;;;12.18;;
56637;SDS011;42507;51.982;20.140;2022-08-23T04:21:57;24.82;;;13.70;;
56637;SDS011;42507;51.982;20.140;2022-08-23T04:24:25;19.42;;;13.13;;
56637;SDS011;42507;51.982;20.140;2022-08-23T04:26:51;21.75;;;13.68;;
56637;SDS011;42507;51.982;20.140;2022-08-23T04:29:18;19.45;;;13.15;;
56637;SDS011;42507;51.982;20.140;2022-08-23T04:31:45;18.40;;;13.10;;
56637;SDS011;42507;51.982;20.140;2022-08-23T04:34:11;19.85;;;13.43;;
56637;SDS011;42507;51.982;20.140;2022-08-23T04:36:39;22.35;;;14.30;;
56637;SDS011;42507;51.982;20.140;2022-08-23T04:39:06;21.95;;;14.63;;
56637;SDS011;42507;51.982;20.140;2022-08-23T04:41:33;21.93;;;14.30;;
56637;SDS011;42507;51.982;20.140;2022-08-23T04:44:18;22.87;;;14.68;;
56637;SDS011;42507;51.982;20.140;2022-08-23T04:46:45;23.02;;;14.10;;
56637;SDS011;42507;51.982;20.140;2022-08-23T04:49:13;19.30;;;13.03;;
56637;SDS011;42507;51.982;20.140;2022-08-23T04:51:40;22.30;;;12.33;;
56637;SDS011;42507;51.982;20.140;2022-08-23T04:54:06;20.08;;;12.78;;
56637;SDS011;42507;51.982;20.140;2022-08-23T04:56:37;19.62;;;13.95;;
56637;SDS011;42507;51.982;20.140;2022-08-23T04:59:04;21.35;;;13.93;;
56637;SDS011;42507;51.982;20.140;2022-08-23T05:01:31;20.82;;;12.93;;
56637;SDS011;42507;51.982;20.140;2022-08-23T05:03:59;17.30;;;12.45;;
56637;SDS011;42507;51.982;20.140;2022-08-23T05:06:27;18.80;;;12.78;;
56637;SDS011;42507;51.982;20.140;2022-08-23T05:08:54;18.98;;;13.72;;
56637;SDS011;42507;51.982;20.140;2022-08-23T05:11:20;23.62;;;14.33;;
56637;SDS011;42507;51.982;20.140;2022-08-23T05:13:47;21.97;;;14.70;;
56637;SDS011;42507;51.982;20.140;2022-08-23T05:16:14;22.27;;;15.38;;
56637;SDS011;42507;51.982;20.140;2022-08-23T05:18:43;20.70;;;13.80;;
56637;SDS011;42507;51.982;20.140;2022-08-23T05:21:12;21.42;;;13.80;;
56637;SDS011;42507;51.982;20.140;2022-08-23T05:23:40;20.82;;;14.43;;
56637;SDS011;42507;51.982;20.140;2022-08-23T05:26:08;17.73;;;12.80;;
56637;SDS011;42507;51.982;20.140;2022-08-23T05:28:40;19.90;;;13.78;;
56637;SDS011;42507;51.982;20.140;2022-08-23T05:31:20;19.87;;;13.98;;
56637;SDS011;42507;51.982;20.140;2022-08-23T05:33:51;17.30;;;14.00;;
56637;SDS011;42507;51.982;20.140;2022-08-23T05:36:19;21.33;;;14.53;;
56637;SDS011;42507;51.982;20.140;2022-08-23T05:38:47;18.12;;;13.32;;
56637;SDS011;42507;51.982;20.140;2022-08-23T05:41:14;21.93;;;14.30;;
56637;SDS011;42507;51.982;20.140;2022-08-23T05:43:41;28.02;;;14.33;;
56637;SDS011;42507;51.982;20.140;2022-08-23T05:46:09;19.57;;;13.28;;
56637;SDS011;42507;51.982;20.140;2022-08-23T05:48:39;26.42;;;14.40;;
56637;SDS011;42507;51.982;20.140;2022-08-23T05:53:42;23.22;;;13.78;;
56637;SDS011;42507;51.982;20.140;2022-08-23T05:56:10;16.45;;;12.78;;
56637;SDS011;42507;51.982;20.140;2022-08-23T05:58:42;16.97;;;11.77;;
56637;SDS011;42507;51.982;20.140;2022-08-23T06:01:10;20.20;;;12.43;;
56637;SDS011;42507;51.982;20.140;2022-08-23T06:03:39;20.17;;;13.65;;
56637;SDS011;42507;51.982;20.140;2022-08-23T06:06:07;18.12;;;12.00;;
56637;SDS011;42507;51.982;20.140;2022-08-23T06:08:35;17.95;;;12.30;;
56637;SDS011;42507;51.982;20.140;2022-08-23T06:11:06;18.60;;;12.70;;
56637;SDS011;42507;51.982;20.140;2022-08-23T06:13:40;21.12;;;13.72;;
56637;SDS011;42507;51.982;20.140;2022-08-23T06:16:12;18.15;;;12.40;;
56637;SDS011;42507;51.982;20.140;2022-08-23T06:18:40;24.67;;;12.70;;
56637;SDS011;42507;51.982;20.140;2022-08-23T06:21:14;16.77;;;11.18;;
56637;SDS011;42507;51.982;20.140;2022-08-23T06:23:43;20.97;;;12.50;;
56637;SDS011;42507;51.982;20.140;2022-08-23T06:26:13;19.02;;;11.68;;
56637;SDS011;42507;51.982;20.140;2022-08-23T06:28:49;16.65;;;11.57;;
56637;SDS011;42507;51.982;20.140;2022-08-23T06:31:18;15.80;;;11.50;;
56637;SDS011;42507;51.982;20.140;2022-08-23T06:34:08;16.65;;;11.65;;
56637;SDS011;42507;51.982;20.140;2022-08-23T06:36:40;16.30;;;11.70;;
56637;SDS011;42507;51.982;20.140;2022-08-23T06:39:15;16.30;;;10.70;;
56637;SDS011;42507;51.982;20.140;2022-08-23T06:42:04;17.37;;;11.55;;
56637;SDS011;42507;51.982;20.140;2022-08-23T06:44:33;16.07;;;11.33;;
56637;SDS011;42507;51.982;20.140;2022-08-23T06:47:18;20.10;;;13.10;;
56637;SDS011;42507;51.982;20.140;2022-08-23T06:49:44;17.27;;;11.55;;
56637;SDS011;42507;51.982;20.140;2022-08-23T06:52:11;19.57;;;11.73;;
56637;SDS011;42507;51.982;20.140;2022-08-23T06:54:42;16.02;;;11.22;;
56637;SDS011;42507;51.982;20.140;2022-08-23T06:57:31;18.17;;;11.12;;
56637;SDS011;42507;51.982;20.140;2022-08-23T06:59:59;16.55;;;11.08;;
56637;SDS011;42507;51.982;20.140;2022-08-23T07:02:36;17.80;;;11.10;;
56637;SDS011;42507;51.982;20.140;2022-08-23T07:05:20;15.40;;;9.73;;
56637;SDS011;42507;51.982;20.140;2022-08-23T07:07:51;15.53;;;10.35;;
56637;SDS011;42507;51.982;20.140;2022-08-23T07:10:19;16.97;;;9.38;;
56637;SDS011;42507;51.982;20.140;2022-08-23T07:12:46;11.33;;;9.25;;
56637;SDS011;42507;51.982;20.140;2022-08-23T07:15:16;12.82;;;8.43;;
56637;SDS011;42507;51.982;20.140;2022-08-23T07:17:44;9.70;;;8.38;;
56637;SDS011;42507;51.982;20.140;2022-08-23T07:20:11;12.35;;;8.30;;
56637;SDS011;42507;51.982;20.140;2022-08-23T07:22:39;13.53;;;8.15;;
56637;SDS011;42507;51.982;20.140;2022-08-23T07:25:06;14.98;;;8.80;;
56637;SDS011;42507;51.982;20.140;2022-08-23T07:27:34;14.05;;;8.50;;
56637;SDS011;42507;51.982;20.140;2022-08-23T07:30:03;12.03;;;8.25;;
56637;SDS011;42507;51.982;20.140;2022-08-23T07:32:30;14.40;;;9.43;;
56637;SDS011;42507;51.982;20.140;2022-08-23T07:34:58;13.72;;;9.15;;
56637;SDS011;42507;51.982;20.140;2022-08-23T07:37:27;12.13;;;9.28;;
56637;SDS011;42507;51.982;20.140;2022-08-23T07:39:56;15.23;;;8.90;;
56637;SDS011;42507;51.982;20.140;2022-08-23T07:42:22;15.13;;;9.58;;
56637;SDS011;42507;51.982;20.140;2022-08-23T07:44:49;14.50;;;10.05;;
56637;SDS011;42507;51.982;20.140;2022-08-23T07:47:19;13.38;;;8.75;;
56637;SDS011;42507;51.982;20.140;2022-08-23T07:49:45;15.70;;;10.80;;
56637;SDS011;42507;51.982;20.140;2022-08-23T07:52:12;14.33;;;9.23;;
56637;SDS011;42507;51.982;20.140;2022-08-23T07:54:38;16.07;;;9.35;;
56637;SDS011;42507;51.982;20.140;2022-08-23T07:57:06;16.95;;;10.53;;
56637;SDS011;42507;51.982;20.140;2022-08-23T07:59:49;13.80;;;8.63;;
56637;SDS011;42507;51.982;20.140;2022-08-23T08:02:19;15.30;;;9.73;;
56637;SDS011;42507;51.982;20.140;2022-08-23T08:04:48;10.30;;;8.20;;
56637;SDS011;42507;51.982;20.140;2022-08-23T08:07:14;14.83;;;9.80;;
56637;SDS011;42507;51.982;20.140;2022-08-23T08:09:42;16.65;;;9.53;;
56637;SDS011;42507;51.982;20.140;2022-08-23T08:12:09;15.50;;;9.40;;
56637;SDS011;42507;51.982;20.140;2022-08-23T08:14:37;12.55;;;8.73;;
56637;SDS011;42507;51.982;20.140;2022-08-23T08:17:05;14.60;;;9.63;;
56637;SDS011;42507;51.982;20.140;2022-08-23T08:19:38;13.65;;;9.08;;
56637;SDS011;42507;51.982;20.140;2022-08-23T08:22:10;15.63;;;9.55;;
56637;SDS011;42507;51.982;20.140;2022-08-23T08:24:56;15.10;;;9.75;;
56637;SDS011;42507;51.982;20.140;2022-08-23T08:27:22;9.75;;;7.83;;
56637;SDS011;42507;51.982;20.140;2022-08-23T08:29:48;15.00;;;8.70;;
56637;SDS011;42507;51.982;20.140;2022-08-23T08:32:14;12.53;;;8.30;;
56637;SDS011;42507;51.982;20.140;2022-08-23T08:34:42;11.12;;;8.38;;
56637;SDS011;42507;51.982;20.140;2022-08-23T08:37:10;12.13;;;7.22;;
56637;SDS011;42507;51.982;20.140;2022-08-23T08:39:36;14.00;;;7.22;;
56637;SDS011;42507;51.982;20.140;2022-08-23T08:44:55;10.98;;;7.00;;
56637;SDS011;42507;51.982;20.140;2022-08-23T08:47:51;12.10;;;7.50;;
56637;SDS011;42507;51.982;20.140;2022-08-23T08:53:04;13.65;;;7.87;;
56637;SDS011;42507;51.982;20.140;2022-08-23T08:56:14;10.63;;;6.95;;
56637;SDS011;42507;51.982;20.140;2022-08-23T08:58:49;12.88;;;6.25;;
56637;SDS011;42507;51.982;20.140;2022-08-23T09:01:22;10.65;;;6.85;;
56637;SDS011;42507;51.982;20.140;2022-08-23T09:03:50;8.98;;;6.70;;
56637;SDS011;42507;51.982;20.140;2022-08-23T09:12:11;10.68;;;6.80;;
56637;SDS011;42507;51.982;20.140;2022-08-23T09:14:48;10.63;;;7.65;;
56637;SDS011;42507;51.982;20.140;2022-08-23T09:17:23;13.18;;;7.30;;
56637;SDS011;42507;51.982;20.140;2022-08-23T09:19:57;10.40;;;6.58;;
56637;SDS011;42507;51.982;20.140;2022-08-23T09:22:31;8.30;;;6.37;;
56637;SDS011;42507;51.982;20.140;2022-08-23T09:24:57;11.45;;;7.30;;
56637;SDS011;42507;51.982;20.140;2022-08-23T09:27:25;12.40;;;7.00;;
56637;SDS011;42507;51.982;20.140;2022-08-23T09:29:58;14.90;;;7.20;;
56637;SDS011;42507;51.982;20.140;2022-08-23T09:32:26;14.33;;;7.12;;
56637;SDS011;42507;51.982;20.140;2022-08-23T09:35:12;10.15;;;7.25;;
56637;SDS011;42507;51.982;20.140;2022-08-23T09:37:48;8.03;;;6.90;;
56637;SDS011;42507;51.982;20.140;2022-08-23T09:40:40;10.85;;;6.62;;
56637;SDS011;42507;51.982;20.140;2022-08-23T09:43:15;10.10;;;6.62;;
56637;SDS011;42507;51.982;20.140;2022-08-23T09:48:32;9.10;;;6.35;;
56637;SDS011;42507;51.982;20.140;2022-08-23T09:56:40;10.95;;;6.65;;
56637;SDS011;42507;51.982;20.140;2022-08-23T10:02:22;12.28;;;6.28;;
56637;SDS011;42507;51.982;20.140;2022-08-23T10:05:00;12.33;;;6.42;;
56637;SDS011;42507;51.982;20.140;2022-08-23T10:07:40;15.53;;;6.92;;
56637;SDS011;42507;51.982;20.140;2022-08-23T10:10:15;9.68;;;6.30;;
56637;SDS011;42507;51.982;20.140;2022-08-23T10:12:59;10.55;;;6.70;;
56637;SDS011;42507;51.982;20.140;2022-08-23T10:15:39;14.53;;;6.62;;
56637;SDS011;42507;51.982;20.140;2022-08-23T10:18:52;13.95;;;6.58;;
56637;SDS011;42507;51.982;20.140;2022-08-23T10:21:22;12.30;;;6.72;;
56637;SDS011;42507;51.982;20.140;2022-08-23T10:24:18;11.28;;;6.67;;
56637;SDS011;42507;51.982;20.140;2022-08-23T10:30:14;12.28;;;6.42;;
56637;SDS011;42507;51.982;20.140;2022-08-23T10:35:26;16.02;;;6.50;;
56637;SDS011;42507;51.982;20.140;2022-08-23T10:38:07;12.30;;;6.62;;
56637;SDS011;42507;51.982;20.140;2022-08-23T10:46:21;11.22;;;6.75;;
56637;SDS011;42507;51.982;20.140;2022-08-23T10:48:49;14.45;;;6.78;;
56637;SDS011;42507;51.982;20.140;2022-08-23T10:51:23;15.50;;;6.97;;
56637;SDS011;42507;51.982;20.140;2022-08-23T10:53:59;13.95;;;7.10;;
56637;SDS011;42507;51.982;20.140;2022-08-23T10:56:30;12.50;;;6.35;;
56637;SDS011;42507;51.982;20.140;2022-08-23T10:58:58;11.88;;;6.80;;
56637;SDS011;42507;51.982;20.140;2022-08-23T11:01:33;10.90;;;6.50;;
56637;SDS011;42507;51.982;20.140;2022-08-23T11:04:52;14.63;;;6.25;;
56637;SDS011;42507;51.982;20.140;2022-08-23T11:07:14;12.68;;;6.65;;
56637;SDS011;42507;51.982;20.140;2022-08-23T11:09:51;16.45;;;7.50;;
56637;SDS011;42507;51.982;20.140;2022-08-23T11:12:24;12.50;;;6.60;;
56637;SDS011;42507;51.982;20.140;2022-08-23T11:17:41;17.55;;;7.40;;
56637;SDS011;42507;51.982;20.140;2022-08-23T11:23:38;17.20;;;6.92;;
56637;SDS011;42507;51.982;20.140;2022-08-23T11:31:42;20.30;;;7.70;;
56637;SDS011;42507;51.982;20.140;2022-08-23T11:34:29;17.32;;;7.50;;
56637;SDS011;42507;51.982;20.140;2022-08-23T11:48:13;17.00;;;8.15;;
56637;SDS011;42507;51.982;20.140;2022-08-23T11:56:54;12.75;;;6.20;;
56637;SDS011;42507;51.982;20.140;2022-08-23T12:02:43;13.15;;;6.75;;
56637;SDS011;42507;51.982;20.140;2022-08-23T12:26:59;11.75;;;6.47;;
56637;SDS011;42507;51.982;20.140;2022-08-23T12:29:51;11.65;;;6.70;;
56637;SDS011;42507;51.982;20.140;2022-08-23T12:32:40;10.43;;;6.80;;
56637;SDS011;42507;51.982;20.140;2022-08-23T12:41:24;15.90;;;6.97;;
56637;SDS011;42507;51.982;20.140;2022-08-23T12:46:35;9.78;;;5.87;;
56637;SDS011;42507;51.982;20.140;2022-08-23T12:49:09;11.63;;;5.83;;
56637;SDS011;42507;51.982;20.140;2022-08-23T12:51:39;10.58;;;5.62;;
56637;SDS011;42507;51.982;20.140;2022-08-23T12:54:12;8.95;;;5.15;;
56637;SDS011;42507;51.982;20.140;2022-08-23T12:56:46;7.78;;;5.03;;
56637;SDS011;42507;51.982;20.140;2022-08-23T13:00:03;13.75;;;6.00;;
56637;SDS011;42507;51.982;20.140;2022-08-23T13:01:53;10.43;;;6.20;;
56637;SDS011;42507;51.982;20.140;2022-08-23T13:04:20;8.80;;;6.12;;
56637;SDS011;42507;51.982;20.140;2022-08-23T13:06:52;10.23;;;5.17;;
56637;SDS011;42507;51.982;20.140;2022-08-23T13:09:31;11.05;;;6.00;;
56637;SDS011;42507;51.982;20.140;2022-08-23T13:12:02;8.45;;;6.05;;
56637;SDS011;42507;51.982;20.140;2022-08-23T13:17:37;10.53;;;5.70;;
56637;SDS011;42507;51.982;20.140;2022-08-23T13:20:39;9.90;;;6.17;;
56637;SDS011;42507;51.982;20.140;2022-08-23T13:22:36;10.63;;;5.80;;
56637;SDS011;42507;51.982;20.140;2022-08-23T13:27:36;11.25;;;5.80;;
56637;SDS011;42507;51.982;20.140;2022-08-23T13:32:47;13.70;;;5.55;;
56637;SDS011;42507;51.982;20.140;2022-08-23T13:35:37;12.05;;;5.40;;
56637;SDS011;42507;51.982;20.140;2022-08-23T13:46:25;8.03;;;4.47;;
56637;SDS011;42507;51.982;20.140;2022-08-23T13:48:58;9.45;;;4.08;;
56637;SDS011;42507;51.982;20.140;2022-08-23T13:54:09;6.12;;;4.35;;
56637;SDS011;42507;51.982;20.140;2022-08-23T13:56:45;9.20;;;4.58;;
56637;SDS011;42507;51.982;20.140;2022-08-23T13:59:29;8.93;;;3.80;;
56637;SDS011;42507;51.982;20.140;2022-08-23T14:02:04;6.50;;;3.33;;
56637;SDS011;42507;51.982;20.140;2022-08-23T14:04:35;7.35;;;4.37;;
56637;SDS011;42507;51.982;20.140;2022-08-23T14:07:03;9.00;;;3.98;;
56637;SDS011;42507;51.982;20.140;2022-08-23T14:09:31;7.47;;;3.90;;
56637;SDS011;42507;51.982;20.140;2022-08-23T14:12:02;5.50;;;3.72;;
56637;SDS011;42507;51.982;20.140;2022-08-23T14:14:32;10.82;;;4.70;;
56637;SDS011;42507;51.982;20.140;2022-08-23T14:17:00;9.90;;;4.00;;
56637;SDS011;42507;51.982;20.140;2022-08-23T14:19:27;9.70;;;4.30;;
56637;SDS011;42507;51.982;20.140;2022-08-23T14:21:56;6.92;;;3.15;;
56637;SDS011;42507;51.982;20.140;2022-08-23T14:24:24;7.53;;;3.55;;
56637;SDS011;42507;51.982;20.140;2022-08-23T14:26:51;8.63;;;3.50;;
56637;SDS011;42507;51.982;20.140;2022-08-23T14:29:19;9.60;;;3.35;;
56637;SDS011;42507;51.982;20.140;2022-08-23T14:31:46;11.55;;;3.42;;
56637;SDS011;42507;51.982;20.140;2022-08-23T14:34:12;8.68;;;3.70;;
56637;SDS011;42507;51.982;20.140;2022-08-23T14:36:39;15.03;;;4.10;;
56637;SDS011;42507;51.982;20.140;2022-08-23T14:39:05;9.23;;;3.83;;
56637;SDS011;42507;51.982;20.140;2022-08-23T14:41:32;11.40;;;3.55;;
56637;SDS011;42507;51.982;20.140;2022-08-23T14:43:58;13.53;;;3.75;;
56637;SDS011;42507;51.982;20.140;2022-08-23T14:46:26;9.08;;;3.52;;
56637;SDS011;42507;51.982;20.140;2022-08-23T14:48:52;10.38;;;3.83;;
56637;SDS011;42507;51.982;20.140;2022-08-23T14:51:22;9.38;;;3.45;;
56637;SDS011;42507;51.982;20.140;2022-08-23T14:53:59;7.15;;;3.87;;
56637;SDS011;42507;51.982;20.140;2022-08-23T14:56:28;9.70;;;3.90;;
56637;SDS011;42507;51.982;20.140;2022-08-23T14:58:56;12.65;;;4.28;;
56637;SDS011;42507;51.982;20.140;2022-08-23T15:01:22;9.95;;;4.00;;
56637;SDS011;42507;51.982;20.140;2022-08-23T15:03:49;8.10;;;4.00;;
56637;SDS011;42507;51.982;20.140;2022-08-23T15:06:16;8.75;;;4.55;;
56637;SDS011;42507;51.982;20.140;2022-08-23T15:08:44;11.45;;;4.90;;
56637;SDS011;42507;51.982;20.140;2022-08-23T15:11:11;10.25;;;4.67;;
56637;SDS011;42507;51.982;20.140;2022-08-23T15:13:40;10.93;;;4.00;;
56637;SDS011;42507;51.982;20.140;2022-08-23T15:16:07;11.25;;;4.22;;
56637;SDS011;42507;51.982;20.140;2022-08-23T15:18:36;16.50;;;4.80;;
56637;SDS011;42507;51.982;20.140;2022-08-23T15:21:04;12.43;;;4.70;;
56637;SDS011;42507;51.982;20.140;2022-08-23T15:23:31;13.65;;;4.80;;
56637;SDS011;42507;51.982;20.140;2022-08-23T15:25:57;10.28;;;4.60;;
56637;SDS011;42507;51.982;20.140;2022-08-23T15:28:24;14.85;;;4.50;;
56637;SDS011;42507;51.982;20.140;2022-08-23T15:30:50;13.35;;;4.80;;
56637;SDS011;42507;51.982;20.140;2022-08-23T15:33:17;14.30;;;5.42;;
56637;SDS011;42507;51.982;20.140;2022-08-23T15:35:46;9.35;;;5.17;;
56637;SDS011;42507;51.982;20.140;2022-08-23T15:40:45;11.65;;;5.70;;
56637;SDS011;42507;51.982;20.140;2022-08-23T15:43:11;12.35;;;6.03;;
56637;SDS011;42507;51.982;20.140;2022-08-23T15:45:37;12.98;;;5.53;;
56637;SDS011;42507;51.982;20.140;2022-08-23T16:04:24;14.25;;;6.25;;
56637;SDS011;42507;51.982;20.140;2022-08-23T16:27:46;18.90;;;6.05;;
56637;SDS011;42507;51.982;20.140;2022-08-23T16:36:10;11.48;;;5.40;;
56637;SDS011;42507;51.982;20.140;2022-08-23T16:44:32;18.10;;;7.90;;
56637;SDS011;42507;51.982;20.140;2022-08-23T16:47:04;14.85;;;6.50;;
56637;SDS011;42507;51.982;20.140;2022-08-23T16:49:38;12.60;;;6.97;;
56637;SDS011;42507;51.982;20.140;2022-08-23T16:52:15;13.13;;;6.33;;
56637;SDS011;42507;51.982;20.140;2022-08-23T16:58:33;14.58;;;5.10;;
56637;SDS011;42507;51.982;20.140;2022-08-23T17:01:01;15.88;;;4.78;;
56637;SDS011;42507;51.982;20.140;2022-08-23T17:03:31;14.90;;;5.28;;
56637;SDS011;42507;51.982;20.140;2022-08-23T17:05:57;14.53;;;5.03;;
56637;SDS011;42507;51.982;20.140;2022-08-23T17:08:24;12.15;;;5.83;;
56637;SDS011;42507;51.982;20.140;2022-08-23T17:10:51;11.85;;;5.67;;
56637;SDS011;42507;51.982;20.140;2022-08-23T17:13:18;13.35;;;5.83;;
56637;SDS011;42507;51.982;20.140;2022-08-23T17:15:49;13.93;;;6.10;;
56637;SDS011;42507;51.982;20.140;2022-08-23T17:18:14;16.00;;;5.72;;
56637;SDS011;42507;51.982;20.140;2022-08-23T17:20:41;11.28;;;6.00;;
56637;SDS011;42507;51.982;20.140;2022-08-23T17:23:20;16.02;;;5.90;;
56637;SDS011;42507;51.982;20.140;2022-08-23T17:25:49;12.28;;;5.47;;
56637;SDS011;42507;51.982;20.140;2022-08-23T17:28:18;13.60;;;5.65;;
56637;SDS011;42507;51.982;20.140;2022-08-23T17:30:46;15.45;;;5.72;;
56637;SDS011;42507;51.982;20.140;2022-08-23T17:33:12;9.13;;;5.17;;
56637;SDS011;42507;51.982;20.140;2022-08-23T17:35:38;11.30;;;5.30;;
56637;SDS011;42507;51.982;20.140;2022-08-23T17:38:05;9.00;;;5.05;;
56637;SDS011;42507;51.982;20.140;2022-08-23T17:40:35;26.12;;;11.50;;
56637;SDS011;42507;51.982;20.140;2022-08-23T17:43:08;19.75;;;7.87;;